Time;durP1;ratioP1;P1;durP2;ratioP2;P2;SDS_P1;SDS_P2;PMS_P1;PMS_P2;Temp;Humidity;BMP_temperature;BMP_pressure;BME280_temperature;BME280_humidity;BME280_pressure;Samples;Min_cycle;Max_cycle;Signal;HPM_P1;HPM_P2
2023/04/27 00:03:19;;;;;;;10.65;5.00;;;6.00;99.90;;;;;;12543764;28;20084;-82
2023/04/27 00:09:28;;;;;;;9.95;4.68;;;5.80;99.90;;;;;;12529345;28;20512;-82
2023/04/27 00:15:36;;;;;;;12.13;4.63;;;5.80;99.90;;;;;;12538256;28;20069;-82
2023/04/27 00:21:45;;;;;;;9.50;4.53;;;5.70;99.90;;;;;;12541653;28;20057;-83
2023/04/27 00:27:53;;;;;;;7.13;4.30;;;5.80;99.90;;;;;;12509717;28;20520;-82
2023/04/27 00:34:02;;;;;;;13.48;5.30;;;5.50;99.90;;;;;;12542995;28;20053;-82
2023/04/27 00:40:10;;;;;;;11.15;4.82;;;5.50;99.90;;;;;;12546558;28;20064;-82
2023/04/27 00:46:20;;;;;;;8.88;4.10;;;5.30;99.90;;;;;;12549829;28;20050;-83
2023/04/27 00:52:30;;;;;;;9.20;4.15;;;5.40;99.90;;;;;;12524994;28;20045;-82
2023/04/27 00:58:38;;;;;;;12.50;4.72;;;5.60;99.90;;;;;;12534855;28;20055;-83
2023/04/27 01:04:49;;;;;;;9.18;4.45;;;5.30;99.90;;;;;;12524760;28;20046;-82
2023/04/27 01:10:57;;;;;;;9.05;4.25;;;5.20;99.90;;;;;;12527836;28;20413;-82
2023/04/27 01:17:06;;;;;;;9.93;3.90;;;5.10;99.90;;;;;;12545315;28;20041;-82
2023/04/27 01:23:15;;;;;;;7.75;3.55;;;5.10;99.90;;;;;;12549513;28;20044;-82
2023/04/27 01:29:23;;;;;;;9.18;3.55;;;5.30;99.90;;;;;;12514102;28;20061;-82
2023/04/27 01:35:31;;;;;;;8.25;3.30;;;5.10;99.90;;;;;;12526200;28;20049;-82
2023/04/27 01:41:39;;;;;;;6.97;3.05;;;5.00;99.90;;;;;;12549356;28;20071;-83
2023/04/27 01:47:51;;;;;;;11.02;3.85;;;5.20;99.90;;;;;;12545279;28;20104;-82
2023/04/27 01:54:00;;;;;;;10.13;3.75;;;5.20;99.90;;;;;;12520573;28;20049;-82
2023/04/27 02:00:10;;;;;;;4.78;3.10;;;5.00;99.90;;;;;;12539970;28;20044;-82
2023/04/27 02:06:18;;;;;;;5.93;3.08;;;5.00;99.90;;;;;;12538596;28;20049;-82
2023/04/27 02:12:26;;;;;;;8.68;3.33;;;4.70;99.90;;;;;;12523034;28;20053;-82
2023/04/27 02:18:34;;;;;;;6.43;3.65;;;4.70;99.90;;;;;;12531266;28;20137;-81
2023/04/27 02:24:43;;;;;;;5.95;3.08;;;4.80;99.90;;;;;;12533228;28;20052;-82
2023/04/27 02:30:51;;;;;;;9.93;3.70;;;4.60;99.90;;;;;;12530679;28;20061;-81
2023/04/27 02:36:59;;;;;;;7.93;3.22;;;4.60;99.90;;;;;;12537072;28;20049;-81
2023/04/27 02:43:08;;;;;;;8.23;3.30;;;4.50;99.90;;;;;;12543709;28;20041;-82
2023/04/27 02:49:16;;;;;;;5.88;3.50;;;4.50;99.90;;;;;;12542451;28;20053;-81
2023/04/27 02:55:26;;;;;;;6.25;4.18;;;4.40;99.90;;;;;;12544022;28;20045;-82
2023/04/27 03:01:34;;;;;;;5.82;3.50;;;4.20;99.90;;;;;;12529221;28;20139;-81
2023/04/27 03:07:42;;;;;;;7.22;3.15;;;4.20;99.90;;;;;;12523706;28;20064;-83
2023/04/27 03:13:50;;;;;;;6.70;3.33;;;4.00;99.90;;;;;;12516564;28;20049;-81
2023/04/27 03:19:59;;;;;;;8.35;3.70;;;4.10;99.90;;;;;;12520491;28;20068;-81
2023/04/27 03:26:12;;;;;;;8.10;3.78;;;3.70;99.90;;;;;;12527455;28;20096;-81
2023/04/27 03:32:20;;;;;;;9.70;4.00;;;3.80;99.90;;;;;;12535575;28;20057;-81
2023/04/27 03:38:30;;;;;;;13.90;4.05;;;3.80;99.90;;;;;;12518370;28;20049;-81
2023/04/27 03:44:38;;;;;;;6.30;3.83;;;3.60;99.90;;;;;;12527340;28;20045;-81
2023/04/27 03:50:49;;;;;;;11.00;4.28;;;3.50;99.90;;;;;;12544436;28;20049;-82
2023/04/27 03:56:57;;;;;;;6.68;3.70;;;3.40;99.90;;;;;;12530372;28;20489;-83
2023/04/27 04:03:06;;;;;;;6.90;3.67;;;3.30;99.90;;;;;;12514224;28;20195;-82
2023/04/27 04:09:15;;;;;;;7.57;3.67;;;3.20;99.90;;;;;;12536248;28;20060;-81
2023/04/27 04:15:24;;;;;;;6.70;3.33;;;3.40;99.90;;;;;;12524048;28;20053;-81
2023/04/27 04:21:33;;;;;;;7.20;3.75;;;3.40;99.90;;;;;;12527853;28;20049;-82
2023/04/27 04:27:41;;;;;;;11.93;3.95;;;3.40;99.90;;;;;;12526031;28;20076;-81
2023/04/27 04:33:56;;;;;;;8.18;3.25;;;3.50;99.90;;;;;;12535786;28;20110;-81
2023/04/27 04:40:09;;;;;;;7.72;3.35;;;3.70;99.90;;;;;;12524797;28;20084;-81
2023/04/27 04:46:18;;;;;;;6.38;3.50;;;3.70;99.90;;;;;;12500671;28;20065;-83
2023/04/27 04:52:26;;;;;;;6.43;3.05;;;5.00;99.90;;;;;;12499562;28;20053;-82
2023/04/27 04:58:35;;;;;;;5.93;2.85;;;8.20;99.90;;;;;;12480397;28;20049;-82
2023/04/27 05:04:43;;;;;;;5.35;2.17;;;11.40;99.90;;;;;;12465897;28;20050;-82
2023/04/27 05:10:52;;;;;;;7.63;2.20;;;13.30;99.90;;;;;;12500947;28;20556;-83
2023/04/27 05:17:00;;;;;;;6.38;2.10;;;12.70;99.90;;;;;;12476800;28;20049;-82
2023/04/27 05:23:08;;;;;;;4.50;2.03;;;11.80;99.90;;;;;;12490594;28;20041;-82
2023/04/27 05:29:16;;;;;;;5.70;2.17;;;11.30;99.90;;;;;;12515931;28;20054;-82
2023/04/27 05:35:24;;;;;;;6.25;2.58;;;11.60;99.90;;;;;;12503613;28;20095;-83
2023/04/27 05:41:32;;;;;;;9.52;3.75;;;11.90;99.90;;;;;;12499309;28;20053;-83
2023/04/27 05:47:40;;;;;;;4.88;1.83;;;12.80;99.90;;;;;;12484721;28;20212;-83
2023/04/27 05:53:49;;;;;;;4.18;1.77;;;12.70;99.90;;;;;;12503004;28;20247;-83
2023/04/27 05:59:59;;;;;;;4.82;2.35;;;13.40;99.90;;;;;;12470749;28;20132;-83
2023/04/27 06:06:07;;;;;;;5.40;2.30;;;11.80;99.90;;;;;;12493051;28;20060;-83
2023/04/27 06:12:21;;;;;;;5.90;1.88;;;10.50;99.90;;;;;;12483919;28;20747;-83
2023/04/27 06:18:30;;;;;;;5.40;2.30;;;9.10;99.90;;;;;;12509553;28;20052;-83
2023/04/27 06:24:39;;;;;;;7.35;2.33;;;8.80;99.90;;;;;;12486336;28;20453;-83
2023/04/27 06:30:47;;;;;;;5.88;2.15;;;9.50;99.90;;;;;;12470117;28;20041;-83
2023/04/27 06:36:55;;;;;;;8.45;3.38;;;9.80;99.90;;;;;;12484716;28;20053;-83
2023/04/27 06:43:03;;;;;;;8.68;3.22;;;9.70;99.90;;;;;;12458929;28;20049;-83
2023/04/27 06:49:12;;;;;;;5.55;2.40;;;9.20;99.90;;;;;;12493740;28;20191;-83
2023/04/27 06:55:20;;;;;;;6.57;2.45;;;9.00;99.90;;;;;;12468174;28;20057;-83
2023/04/27 07:01:28;;;;;;;8.65;2.92;;;8.50;99.90;;;;;;12479943;28;20094;-83
2023/04/27 07:07:36;;;;;;;7.05;2.65;;;8.80;99.90;;;;;;12465734;28;20045;-83
2023/04/27 07:13:44;;;;;;;8.13;2.40;;;8.40;99.90;;;;;;12485779;28;20493;-84
2023/04/27 07:19:53;;;;;;;6.13;2.25;;;8.80;99.90;;;;;;12493840;28;20090;-83
2023/04/27 07:26:01;;;;;;;6.35;1.50;;;8.70;99.90;;;;;;12514648;28;20058;-83
2023/04/27 07:32:09;;;;;;;13.23;2.00;;;8.80;99.90;;;;;;12527301;28;20037;-83
2023/04/27 07:38:19;;;;;;;6.18;1.63;;;8.10;99.90;;;;;;12543691;28;20058;-84
2023/04/27 07:44:27;;;;;;;3.58;1.85;;;8.00;99.90;;;;;;12508503;28;20056;-84
2023/04/27 07:50:36;;;;;;;7.95;2.30;;;8.30;99.90;;;;;;12518391;28;20049;-84
2023/04/27 07:56:44;;;;;;;6.68;2.00;;;8.50;99.90;;;;;;12515765;28;20132;-83
2023/04/27 08:02:53;;;;;;;7.47;2.50;;;8.90;99.90;;;;;;12518932;28;20064;-83
2023/04/27 08:09:03;;;;;;;5.20;1.90;;;9.30;99.90;;;;;;12522208;28;20091;-83
2023/04/27 08:15:12;;;;;;;4.13;1.90;;;9.00;99.90;;;;;;12511019;28;20053;-85
2023/04/27 08:21:20;;;;;;;5.35;1.90;;;9.40;99.90;;;;;;12508098;28;20073;-84
2023/04/27 08:27:28;;;;;;;5.68;1.70;;;9.60;99.90;;;;;;12497037;28;20482;-84
2023/04/27 08:33:43;;;;;;;6.53;2.05;;;9.30;99.90;;;;;;12519043;28;20045;-84
2023/04/27 08:39:51;;;;;;;5.03;1.60;;;9.60;99.90;;;;;;12495943;28;20534;-84
2023/04/27 08:45:59;;;;;;;3.60;1.67;;;10.00;99.90;;;;;;12505029;28;20041;-83
2023/04/27 08:52:15;;;;;;;6.13;1.80;;;9.90;99.90;;;;;;12487839;28;20069;-83
2023/04/27 08:58:35;;;;;;;6.38;1.90;;;10.30;99.90;;;;;;12504977;28;20048;-83
2023/04/27 09:04:44;;;;;;;6.60;2.63;;;10.70;99.90;;;;;;12508843;28;20050;-83
2023/04/27 09:11:00;;;;;;;4.68;1.95;;;10.80;99.90;;;;;;12510071;28;20049;-83
2023/04/27 09:17:08;;;;;;;4.63;1.98;;;10.50;99.90;;;;;;12519321;28;20144;-83
2023/04/27 09:23:29;;;;;;;4.35;2.00;;;10.60;99.90;;;;;;12502598;28;20072;-83
2023/04/27 09:29:37;;;;;;;3.55;1.80;;;11.20;99.90;;;;;;12523718;28;20168;-83
2023/04/27 09:35:47;;;;;;;4.35;2.15;;;11.60;99.90;;;;;;12513590;28;20053;-83
2023/04/27 09:41:55;;;;;;;3.72;1.67;;;11.60;99.90;;;;;;12501787;28;20512;-83
2023/04/27 09:48:08;;;;;;;7.40;2.35;;;12.10;99.90;;;;;;12526836;28;20059;-83
2023/04/27 09:54:17;;;;;;;3.40;1.85;;;12.60;99.90;;;;;;12499292;28;20161;-83
2023/04/27 10:00:31;;;;;;;5.28;2.30;;;11.70;99.90;;;;;;12524919;28;20515;-83
2023/04/27 10:07:01;;;;;;;3.65;1.73;;;11.70;99.90;;;;;;12522458;28;20056;-83
2023/04/27 10:13:21;;;;;;;4.72;2.05;;;10.60;99.90;;;;;;12502672;28;20052;-84
2023/04/27 10:19:29;;;;;;;7.75;2.63;;;10.90;99.90;;;;;;12522350;28;20046;-84
2023/04/27 10:25:39;;;;;;;4.95;2.20;;;11.50;99.90;;;;;;12498003;28;20203;-84
2023/04/27 10:31:47;;;;;;;7.80;2.20;;;11.10;99.90;;;;;;12523020;28;20037;-83
2023/04/27 10:38:07;;;;;;;5.78;2.42;;;10.90;99.90;;;;;;12489852;28;20109;-83
2023/04/27 10:44:17;;;;;;;8.00;2.72;;;10.50;99.90;;;;;;12508866;28;20064;-84
2023/04/27 10:50:26;;;;;;;6.97;2.70;;;10.60;99.90;;;;;;12507821;28;20136;-83
2023/04/27 10:56:34;;;;;;;4.25;1.98;;;10.10;99.90;;;;;;12513209;28;20049;-84
2023/04/27 11:02:42;;;;;;;6.10;2.08;;;11.20;99.90;;;;;;12543302;28;20621;-85
2023/04/27 11:08:50;;;;;;;5.50;2.50;;;11.80;99.90;;;;;;12559596;28;20056;-84
2023/04/27 11:14:59;;;;;;;6.78;3.03;;;11.70;99.90;;;;;;12570853;28;20398;-84
2023/04/27 11:21:10;;;;;;;5.72;2.30;;;12.70;99.90;;;;;;12535643;28;20125;-84
2023/04/27 11:27:21;;;;;;;3.40;2.00;;;12.80;99.90;;;;;;12538160;28;20108;-84
2023/04/27 11:33:35;;;;;;;5.45;1.98;;;13.20;99.90;;;;;;12541682;28;20041;-84
2023/04/27 11:39:45;;;;;;;3.80;2.00;;;13.50;99.90;;;;;;12546061;28;20040;-84
2023/04/27 11:45:55;;;;;;;4.30;2.10;;;13.00;99.90;;;;;;12518313;28;20072;-84
2023/04/27 11:52:03;;;;;;;4.55;2.30;;;13.50;99.90;;;;;;12522494;28;20072;-84
2023/04/27 11:58:13;;;;;;;4.35;2.30;;;13.20;99.90;;;;;;12514372;28;20053;-84
2023/04/27 12:04:22;;;;;;;6.00;2.70;;;12.90;99.90;;;;;;12504683;28;20053;-84
2023/04/27 12:10:31;;;;;;;4.65;2.38;;;13.30;99.90;;;;;;12514106;28;20050;-85
2023/04/27 12:16:39;;;;;;;3.83;2.40;;;13.70;99.90;;;;;;12535500;28;20532;-84
2023/04/27 12:22:49;;;;;;;6.40;2.15;;;14.00;99.90;;;;;;12533547;28;20045;-84
2023/04/27 12:28:57;;;;;;;5.80;2.47;;;14.20;99.90;;;;;;12517653;28;20054;-85
2023/04/27 12:35:12;;;;;;;3.65;2.50;;;14.00;99.90;;;;;;12511697;28;20042;-85
2023/04/27 12:41:22;;;;;;;4.20;2.25;;;14.00;99.90;;;;;;12512374;28;20045;-85
2023/04/27 12:47:33;;;;;;;9.98;2.05;;;14.90;99.90;;;;;;12500655;28;20052;-85
2023/04/27 12:54:05;;;;;;;5.95;2.25;;;14.30;99.90;;;;;;12537336;28;20041;-84
2023/04/27 13:00:14;;;;;;;7.22;2.60;;;14.40;99.90;;;;;;12491897;28;20060;-85
2023/04/27 13:06:24;;;;;;;5.53;2.28;;;14.50;99.90;;;;;;12510941;28;20059;-84
2023/04/27 13:12:32;;;;;;;4.38;2.17;;;14.20;99.90;;;;;;12513220;28;20107;-85
2023/04/27 13:18:48;;;;;;;6.22;2.50;;;12.90;99.90;;;;;;12536655;28;20167;-84
2023/04/27 13:25:12;;;;;;;5.25;2.60;;;12.60;99.90;;;;;;12506211;28;20045;-85
2023/04/27 13:31:28;;;;;;;4.47;2.40;;;13.10;99.90;;;;;;12510091;28;20127;-85
2023/04/27 13:37:37;;;;;;;4.47;2.10;;;13.40;99.90;;;;;;12459476;28;20068;-85
2023/04/27 13:43:45;;;;;;;5.65;2.10;;;13.60;99.90;;;;;;12454733;28;20045;-85
2023/04/27 13:49:53;;;;;;;5.40;2.47;;;13.10;99.90;;;;;;12466984;28;20107;-84
2023/04/27 13:56:01;;;;;;;3.75;2.42;;;12.90;99.90;;;;;;12471404;28;20102;-85
2023/04/27 14:02:09;;;;;;;4.68;2.10;;;12.90;99.90;;;;;;12470026;28;20056;-84
2023/04/27 14:08:17;;;;;;;5.05;2.83;;;13.20;99.90;;;;;;12448466;28;20045;-84
2023/04/27 14:14:26;;;;;;;5.85;2.58;;;13.90;99.90;;;;;;12460284;28;20054;-84
2023/04/27 14:20:35;;;;;;;5.38;2.53;;;14.00;99.90;;;;;;12452802;28;20053;-85
2023/04/27 14:26:46;;;;;;;3.83;2.10;;;15.00;99.90;;;;;;12462944;28;20060;-85
2023/04/27 14:32:54;;;;;;;8.18;2.72;;;15.10;99.90;;;;;;12464665;28;20420;-85
2023/04/27 14:39:05;;;;;;;5.15;2.75;;;15.10;99.90;;;;;;12462149;28;20157;-84
2023/04/27 14:45:16;;;;;;;4.78;2.50;;;15.00;99.90;;;;;;12468964;28;20084;-84
2023/04/27 14:51:25;;;;;;;4.10;2.42;;;14.60;99.90;;;;;;12472266;28;20183;-84
2023/04/27 14:57:34;;;;;;;4.65;2.47;;;14.80;99.90;;;;;;12473035;28;20053;-84
2023/04/27 15:03:42;;;;;;;5.32;2.80;;;14.90;99.90;;;;;;12467994;28;20565;-84
2023/04/27 15:09:51;;;;;;;5.38;2.67;;;14.70;99.90;;;;;;12427676;28;20045;-84
2023/04/27 15:16:00;;;;;;;4.63;2.42;;;13.50;99.90;;;;;;12477912;28;20137;-84
2023/04/27 15:22:08;;;;;;;3.55;2.50;;;12.90;99.90;;;;;;12459972;28;20053;-84
2023/04/27 15:28:17;;;;;;;6.95;2.60;;;13.40;99.90;;;;;;12466750;28;20049;-84
2023/04/27 15:34:32;;;;;;;3.40;2.20;;;12.70;99.90;;;;;;12514239;28;20045;-84
2023/04/27 15:40:40;;;;;;;7.15;2.63;;;12.80;99.90;;;;;;12531482;28;20752;-84
2023/04/27 15:46:48;;;;;;;4.63;2.20;;;13.10;99.90;;;;;;12518135;28;20053;-84
2023/04/27 15:52:56;;;;;;;5.82;2.42;;;13.50;99.90;;;;;;12520167;28;20051;-84
2023/04/27 15:59:06;;;;;;;3.22;2.30;;;13.80;99.90;;;;;;12523316;28;20164;-84
2023/04/27 16:05:16;;;;;;;5.07;2.38;;;13.00;99.90;;;;;;12505834;28;20084;-84
2023/04/27 16:11:24;;;;;;;5.45;2.45;;;13.10;99.90;;;;;;12517972;28;20424;-84
2023/04/27 16:17:40;;;;;;;6.65;2.80;;;13.50;99.90;;;;;;12504438;28;20611;-84
2023/04/27 16:23:50;;;;;;;4.70;2.33;;;13.30;99.90;;;;;;12516420;28;20136;-84
2023/04/27 16:29:58;;;;;;;6.75;2.63;;;13.50;99.90;;;;;;12519657;28;20127;-84
2023/04/27 16:36:13;;;;;;;4.57;2.22;;;13.40;99.90;;;;;;12490468;28;20081;-84
2023/04/27 16:42:21;;;;;;;5.43;2.60;;;12.90;99.90;;;;;;12451537;28;20607;-84
2023/04/27 16:48:29;;;;;;;4.07;2.45;;;12.80;99.90;;;;;;12473321;28;20076;-84
2023/04/27 16:54:37;;;;;;;7.07;2.22;;;12.30;99.90;;;;;;12468269;28;20087;-84
2023/04/27 17:00:45;;;;;;;9.20;2.55;;;11.70;99.90;;;;;;12464768;28;20049;-83
2023/04/27 17:06:54;;;;;;;4.93;2.40;;;11.40;99.90;;;;;;12454385;28;20050;-84
2023/04/27 17:13:03;;;;;;;3.58;2.33;;;11.40;99.90;;;;;;12462989;28;20498;-83
2023/04/27 17:19:12;;;;;;;4.53;2.17;;;11.30;99.90;;;;;;12462091;28;20053;-83
2023/04/27 17:25:21;;;;;;;7.28;2.17;;;11.30;99.90;;;;;;12471647;28;20049;-83
2023/04/27 17:31:29;;;;;;;3.05;1.70;;;11.20;99.90;;;;;;12491242;28;20041;-83
2023/04/27 17:37:37;;;;;;;8.20;2.72;;;11.10;99.90;;;;;;12517074;28;20045;-83
2023/04/27 17:43:47;;;;;;;6.15;2.22;;;11.00;99.90;;;;;;12484576;28;20052;-83
2023/04/27 17:49:55;;;;;;;4.63;1.98;;;10.90;99.90;;;;;;12536872;28;20053;-83
2023/04/27 17:56:04;;;;;;;5.93;2.10;;;10.80;99.90;;;;;;12519783;28;20048;-83
2023/04/27 18:02:12;;;;;;;6.35;2.30;;;10.60;99.90;;;;;;12541558;28;20060;-84
2023/04/27 18:08:20;;;;;;;5.38;2.20;;;10.60;99.90;;;;;;12514375;28;20060;-83
2023/04/27 18:14:28;;;;;;;4.07;2.15;;;10.60;99.90;;;;;;12513689;28;20047;-83
2023/04/27 18:20:36;;;;;;;5.65;2.22;;;10.40;99.90;;;;;;12515835;28;20041;-83
2023/04/27 18:26:44;;;;;;;5.75;2.15;;;10.30;99.90;;;;;;12524602;28;20052;-83
2023/04/27 18:32:58;;;;;;;6.22;2.60;;;10.20;99.90;;;;;;12514635;28;20053;-83
2023/04/27 18:39:07;;;;;;;4.38;2.53;;;10.10;99.90;;;;;;12523802;28;20045;-83
2023/04/27 18:45:16;;;;;;;6.35;2.70;;;10.00;99.90;;;;;;12511000;28;20056;-83
2023/04/27 18:51:31;;;;;;;9.52;2.30;;;9.90;99.90;;;;;;12520649;28;20053;-83
2023/04/27 18:57:39;;;;;;;5.03;2.15;;;9.80;99.90;;;;;;12508419;28;20053;-83
2023/04/27 19:03:49;;;;;;;4.65;2.20;;;9.70;99.90;;;;;;12510847;28;20632;-83
2023/04/27 19:09:58;;;;;;;6.22;2.30;;;9.50;99.90;;;;;;12495396;28;20052;-83
2023/04/27 19:16:07;;;;;;;7.95;2.78;;;9.40;99.90;;;;;;12518975;28;20041;-83
2023/04/27 19:22:15;;;;;;;4.32;1.98;;;9.40;99.90;;;;;;12521522;28;20060;-83
2023/04/27 19:28:23;;;;;;;4.63;1.92;;;9.30;99.90;;;;;;12516123;28;20067;-82
2023/04/27 19:34:37;;;;;;;7.00;2.28;;;9.20;99.90;;;;;;12489303;28;20041;-83
2023/04/27 19:40:47;;;;;;;4.93;2.15;;;9.10;99.90;;;;;;12488838;28;20144;-83
2023/04/27 19:46:55;;;;;;;6.05;2.53;;;9.10;99.90;;;;;;12465815;28;20500;-82
2023/04/27 19:53:03;;;;;;;5.97;2.35;;;9.00;99.90;;;;;;12456961;28;20517;-83
2023/04/27 19:59:11;;;;;;;6.95;2.40;;;8.90;99.90;;;;;;12478760;28;20176;-82
2023/04/27 20:05:20;;;;;;;4.97;2.30;;;8.90;99.90;;;;;;12480046;28;20045;-82
2023/04/27 20:11:29;;;;;;;6.90;2.58;;;8.70;99.90;;;;;;12472856;28;20164;-82
2023/04/27 20:17:38;;;;;;;7.65;2.50;;;8.60;99.90;;;;;;12481296;28;20056;-83
2023/04/27 20:23:47;;;;;;;8.80;2.50;;;8.50;99.90;;;;;;12461820;28;20056;-82
2023/04/27 20:29:55;;;;;;;6.70;2.30;;;8.50;99.90;;;;;;12485191;28;20072;-82
2023/04/27 20:36:10;;;;;;;5.20;2.40;;;8.50;99.90;;;;;;12523505;28;20053;-82
2023/04/27 20:42:19;;;;;;;4.07;2.22;;;8.50;99.90;;;;;;12532600;28;20049;-82
2023/04/27 20:48:28;;;;;;;5.38;2.40;;;8.50;99.90;;;;;;12531128;28;20053;-82
2023/04/27 20:54:36;;;;;;;4.10;2.55;;;8.40;99.90;;;;;;12516558;28;20052;-82
2023/04/27 21:00:45;;;;;;;7.07;2.63;;;8.40;99.90;;;;;;12543325;28;20069;-81
2023/04/27 21:06:53;;;;;;;4.75;2.72;;;8.40;99.90;;;;;;12530069;28;20497;-82
2023/04/27 21:13:02;;;;;;;5.80;2.40;;;8.40;99.90;;;;;;12494981;28;20672;-82
2023/04/27 21:19:13;;;;;;;4.05;2.20;;;8.30;99.90;;;;;;12515951;28;20045;-83
2023/04/27 21:25:22;;;;;;;8.73;2.80;;;8.30;99.90;;;;;;12535319;28;20053;-83
2023/04/27 21:31:38;;;;;;;3.80;2.30;;;8.30;99.90;;;;;;12572233;28;20123;-84
2023/04/27 21:37:47;;;;;;;4.18;2.60;;;8.30;99.90;;;;;;12554367;28;20049;-82
2023/04/27 21:43:55;;;;;;;3.58;2.10;;;8.30;99.90;;;;;;12535579;28;20057;-83
2023/04/27 21:50:04;;;;;;;6.38;2.40;;;8.20;99.90;;;;;;12515979;28;20063;-84
2023/04/27 21:56:12;;;;;;;5.47;2.40;;;8.30;99.90;;;;;;12526414;28;20053;-82
2023/04/27 22:02:21;;;;;;;5.70;2.65;;;8.40;99.90;;;;;;12489606;28;20057;-83
2023/04/27 22:08:29;;;;;;;5.20;2.30;;;8.40;99.90;;;;;;12533756;28;20049;-82
2023/04/27 22:14:38;;;;;;;4.20;2.20;;;8.40;99.90;;;;;;12501629;28;20049;-82
2023/04/27 22:20:48;;;;;;;7.13;2.70;;;8.40;99.90;;;;;;12523947;28;20052;-82
2023/04/27 22:26:56;;;;;;;8.18;2.58;;;8.50;99.90;;;;;;12508904;28;20110;-82
2023/04/27 22:33:11;;;;;;;5.70;2.20;;;8.50;99.90;;;;;;12503042;28;20103;-82
2023/04/27 22:39:19;;;;;;;6.93;2.13;;;8.30;99.90;;;;;;12503901;28;20051;-83
2023/04/27 22:45:27;;;;;;;7.72;2.45;;;8.30;99.90;;;;;;12496245;28;20163;-82
2023/04/27 22:51:38;;;;;;;6.72;2.33;;;8.30;99.90;;;;;;12503282;28;20053;-83
2023/04/27 22:57:48;;;;;;;4.25;2.58;;;8.30;99.90;;;;;;12532264;28;20106;-83
2023/04/27 23:03:57;;;;;;;8.35;2.47;;;8.20;99.90;;;;;;12512482;28;20053;-83
2023/04/27 23:10:06;;;;;;;5.72;2.20;;;8.10;99.90;;;;;;12506455;28;20071;-83
2023/04/27 23:16:14;;;;;;;5.63;2.22;;;8.00;99.90;;;;;;12507738;28;20053;-83
2023/04/27 23:22:24;;;;;;;4.75;2.40;;;8.00;99.90;;;;;;12506667;28;20053;-82
2023/04/27 23:28:32;;;;;;;7.03;2.30;;;7.90;99.90;;;;;;12502982;28;20495;-82
2023/04/27 23:34:46;;;;;;;6.60;2.30;;;7.80;99.90;;;;;;12463125;28;20644;-82
2023/04/27 23:40:55;;;;;;;6.88;2.40;;;8.00;99.90;;;;;;12452626;28;20073;-82
2023/04/27 23:47:03;;;;;;;10.00;2.58;;;8.10;99.90;;;;;;12458901;28;20135;-81
2023/04/27 23:53:12;;;;;;;8.50;2.60;;;8.00;99.90;;;;;;12441597;28;20518;-82
2023/04/27 23:59:20;;;;;;;6.20;2.30;;;8.00;99.90;;;;;;12471384;28;20117;-82
